Dades meteomassalio
Diari Summary for Diciembre 7, 2017 Units:  Both    English   Metric
« Previous Day
Next Day »
Diari Semanal Mensual Anual Personalitzat
  Maxima: Minima: Mijana:
Temperatura: 46.9 °F /  8.3 °C 17.1 °F /  -8.3 °C 27.9 °F /  -2.3 °C
Rosada: 33.8 °F /  1.0 °C 14.5 °F /  -9.7 °C 22.5 °F /  -5.3 °C
Humitat: 91 % 58 % 81 %
Velocitat del vent: 11 mph /  17.7 km/h - 0.6 mph /  0.9 km/h
Racha vent: 11 mph /  17.7 km/h - -
Vent:- - SW
Pressio: 30.6 in /  1037.5 hPa 30.5 in /  1032.7 hPa -
Pluja: 0 in /  0.0 mm    
Historical Graphs
 
 
Tabular Data for Diciembre 7, 2017
Time Temperature Dew Point Pressure Wind Wind Speed Wind Gust Humidity Rainfall Rate (Hourly) solar Conditions
00:04 21.9 °F /  -5.6 °C 18.7 °F /  -7.4 °C 30.6 in /  1037.5 hPa WSW 3.5 mph /  5.6 km/h 3.5 mph /  5.6 km/h 87 % 0 in /  0.0 mm 0.0 W/m2 RA
00:09 21.9 °F /  -5.6 °C 19 °F /  -7.2 °C 30.6 in /  1037.5 hPa Calm     88 % 0 in /  0.0 mm 0.0 W/m2 CLR
00:14 21.9 °F /  -5.6 °C 19 °F /  -7.2 °C 30.6 in /  1037.5 hPa Calm     88 % 0 in /  0.0 mm 0.0 W/m2 CLR
00:19 21 °F /  -6.1 °C 18 °F /  -7.8 °C 30.6 in /  1037.1 hPa WSW 2.3 mph /  3.7 km/h 2.3 mph /  3.7 km/h 88 % 0 in /  0.0 mm 0.0 W/m2 CLR
00:24 21 °F /  -6.1 °C 18 °F /  -7.8 °C 30.6 in /  1037.1 hPa WSW 3.5 mph /  5.6 km/h 3.5 mph /  5.6 km/h 88 % 0 in /  0.0 mm 0.0 W/m2 CLR
00:29 21 °F /  -6.1 °C 18 °F /  -7.8 °C 30.6 in /  1037.1 hPa WSW 2.3 mph /  3.7 km/h 2.3 mph /  3.7 km/h 88 % 0 in /  0.0 mm 0.0 W/m2 CLR
00:34 21 °F /  -6.1 °C 18 °F /  -7.8 °C 30.6 in /  1037.1 hPa WSW 1.2 mph /  1.9 km/h 1.2 mph /  1.9 km/h 88 % 0 in /  0.0 mm 0.0 W/m2 CLR
00:39 21 °F /  -6.1 °C 18 °F /  -7.8 °C 30.6 in /  1037.1 hPa Calm     88 % 0 in /  0.0 mm 0.0 W/m2 CLR
00:44 21 °F /  -6.1 °C 17.8 °F /  -7.9 °C 30.6 in /  1037.1 hPa Calm     87 % 0 in /  0.0 mm 0.0 W/m2 CLR
00:49 21 °F /  -6.1 °C 18 °F /  -7.8 °C 30.6 in /  1037.1 hPa Calm     88 % 0 in /  0.0 mm 0.0 W/m2 CLR
00:54 21 °F /  -6.1 °C 18 °F /  -7.8 °C 30.6 in /  1037.1 hPa West 3.5 mph /  5.6 km/h 3.5 mph /  5.6 km/h 88 % 0 in /  0.0 mm 0.0 W/m2 CLR
00:59 21 °F /  -6.1 °C 18 °F /  -7.8 °C 30.6 in /  1037.1 hPa Calm     88 % 0 in /  0.0 mm 0.0 W/m2 CLR
01:04 21 °F /  -6.1 °C 18 °F /  -7.8 °C 30.6 in /  1037.1 hPa Calm     88 % 0 in /  0.0 mm 0.0 W/m2 CLR
01:05 21 °F /  -6.1 °C 18 °F /  -7.8 °C 30.6 in /  1037.1 hPa Calm     88 % 0 in /  0.0 mm 0.0 W/m2 CLR
01:10 21.9 °F /  -5.6 °C 18.7 °F /  -7.4 °C 30.6 in /  1036.8 hPa Calm     87 % 0 in /  0.0 mm 0.0 W/m2 CLR
01:15 21.9 °F /  -5.6 °C 19 °F /  -7.2 °C 30.6 in /  1036.8 hPa West 1.2 mph /  1.9 km/h   88 % 0 in /  0.0 mm 0.0 W/m2 CLR
01:20 21 °F /  -6.1 °C 18 °F /  -7.8 °C 30.6 in /  1036.8 hPa West 1 mph /  1.6 km/h 1 mph /  1.6 km/h 88 % 0 in /  0.0 mm 0.0 W/m2 CLR
01:25 21 °F /  -6.1 °C 18.3 °F /  -7.6 °C 30.6 in /  1036.8 hPa West 2.3 mph /  3.7 km/h 2.3 mph /  3.7 km/h 89 % 0 in /  0.0 mm 0.0 W/m2 CLR
01:30 21 °F /  -6.1 °C 18.3 °F /  -7.6 °C 30.6 in /  1036.8 hPa West 2.3 mph /  3.7 km/h 2.3 mph /  3.7 km/h 89 % 0 in /  0.0 mm 0.0 W/m2 CLR
01:35 21 °F /  -6.1 °C 18 °F /  -7.8 °C 30.6 in /  1036.8 hPa Calm     88 % 0 in /  0.0 mm 0.0 W/m2 CLR
01:40 21 °F /  -6.1 °C 18 °F /  -7.8 °C 30.6 in /  1036.5 hPa Calm     88 % 0 in /  0.0 mm 0.0 W/m2 CLR
01:45 21 °F /  -6.1 °C 18 °F /  -7.8 °C 30.6 in /  1036.5 hPa Calm     88 % 0 in /  0.0 mm 0.0 W/m2 CLR
01:50 21.9 °F /  -5.6 °C 19 °F /  -7.2 °C 30.6 in /  1036.5 hPa Calm     88 % 0 in /  0.0 mm 0.0 W/m2 CLR
01:55 21.9 °F /  -5.6 °C 19 °F /  -7.2 °C 30.6 in /  1036.5 hPa West 3.5 mph /  5.6 km/h 3.5 mph /  5.6 km/h 88 % 0 in /  0.0 mm 0.0 W/m2 CLR
02:00 21.9 °F /  -5.6 °C 19.2 °F /  -7.1 °C 30.6 in /  1036.5 hPa WSW 4 mph /  6.4 km/h 4 mph /  6.4 km/h 89 % 0 in /  0.0 mm 0.0 W/m2 CLR
02:05 21 °F /  -6.1 °C 18.3 °F /  -7.6 °C 30.6 in /  1036.5 hPa WSW 3.5 mph /  5.6 km/h 3.5 mph /  5.6 km/h 89 % 0 in /  0.0 mm 0.0 W/m2 CLR
02:10 21 °F /  -6.1 °C 18.3 °F /  -7.6 °C 30.6 in /  1036.5 hPa Calm     89 % 0 in /  0.0 mm 0.0 W/m2 CLR
02:15 21 °F /  -6.1 °C 18.3 °F /  -7.6 °C 30.6 in /  1036.5 hPa Calm     89 % 0 in /  0.0 mm 0.0 W/m2 CLR
02:20 21 °F /  -6.1 °C 18.3 °F /  -7.6 °C 30.6 in /  1036.5 hPa WSW 1 mph /  1.6 km/h 1 mph /  1.6 km/h 89 % 0 in /  0.0 mm 0.0 W/m2 CLR
02:25 21 °F /  -6.1 °C 18.3 °F /  -7.6 °C 30.6 in /  1036.5 hPa Calm     89 % 0 in /  0.0 mm 0.0 W/m2 CLR
02:30 21 °F /  -6.1 °C 18.3 °F /  -7.6 °C 30.6 in /  1036.5 hPa Calm     89 % 0 in /  0.0 mm 0.0 W/m2 CLR
02:35 19.9 °F /  -6.7 °C 17.4 °F /  -8.1 °C 30.6 in /  1036.5 hPa Calm     90 % 0 in /  0.0 mm 0.0 W/m2 CLR
02:40 19.9 °F /  -6.7 °C 17.2 °F /  -8.2 °C 30.6 in /  1036.5 hPa Calm     89 % 0 in /  0.0 mm 0.0 W/m2 CLR
02:45 19.9 °F /  -6.7 °C 17.2 °F /  -8.2 °C 30.6 in /  1036.5 hPa Calm     89 % 0 in /  0.0 mm 0.0 W/m2 CLR
02:50 19.9 °F /  -6.7 °C 17.2 °F /  -8.2 °C 30.6 in /  1036.5 hPa Calm     89 % 0 in /  0.0 mm 0.0 W/m2 CLR
02:55 19.9 °F /  -6.7 °C 17.2 °F /  -8.2 °C 30.6 in /  1036.5 hPa West 3.5 mph /  5.6 km/h 3.5 mph /  5.6 km/h 89 % 0 in /  0.0 mm 0.0 W/m2 CLR
03:00 19.9 °F /  -6.7 °C 17.2 °F /  -8.2 °C 30.6 in /  1036.5 hPa Calm     89 % 0 in /  0.0 mm 0.0 W/m2 CLR
03:05 19.9 °F /  -6.7 °C 17.4 °F /  -8.1 °C 30.6 in /  1036.8 hPa Calm     90 % 0 in /  0.0 mm 0.0 W/m2 CLR
03:10 19.9 °F /  -6.7 °C 17.4 °F /  -8.1 °C 30.6 in /  1036.8 hPa West 1.2 mph /  1.9 km/h   90 % 0 in /  0.0 mm 0.0 W/m2 CLR
03:15 19.9 °F /  -6.7 °C 17.4 °F /  -8.1 °C 30.6 in /  1036.8 hPa Calm     90 % 0 in /  0.0 mm 0.0 W/m2 CLR
03:20 19.9 °F /  -6.7 °C 17.2 °F /  -8.2 °C 30.6 in /  1036.8 hPa Calm     89 % 0 in /  0.0 mm 0.0 W/m2 CLR
03:25 19.9 °F /  -6.7 °C 17.4 °F /  -8.1 °C 30.6 in /  1036.8 hPa Calm     90 % 0 in /  0.0 mm 0.0 W/m2 CLR
03:30 19.9 °F /  -6.7 °C 17.4 °F /  -8.1 °C 30.6 in /  1036.5 hPa Calm     90 % 0 in /  0.0 mm 0.0 W/m2 CLR
03:35 19.9 °F /  -6.7 °C 17.2 °F /  -8.2 °C 30.6 in /  1036.5 hPa Calm     89 % 0 in /  0.0 mm 0.0 W/m2 CLR
03:40 19.9 °F /  -6.7 °C 17.4 °F /  -8.1 °C 30.6 in /  1036.5 hPa Calm     90 % 0 in /  0.0 mm 0.0 W/m2 CLR
03:45 19.9 °F /  -6.7 °C 17.4 °F /  -8.1 °C 30.6 in /  1036.5 hPa Calm     90 % 0 in /  0.0 mm 0.0 W/m2 CLR
03:50 19.9 °F /  -6.7 °C 17.2 °F /  -8.2 °C 30.6 in /  1036.5 hPa Calm     89 % 0 in /  0.0 mm 0.0 W/m2 CLR
03:55 19 °F /  -7.2 °C 16.3 °F /  -8.7 °C 30.6 in /  1036.5 hPa Calm     89 % 0 in /  0.0 mm 0.0 W/m2 CLR
04:00 19 °F /  -7.2 °C 16.3 °F /  -8.7 °C 30.6 in /  1036.5 hPa Calm     89 % 0 in /  0.0 mm 0.0 W/m2 CLR
04:05 19 °F /  -7.2 °C 16.3 °F /  -8.7 °C 30.6 in /  1036.5 hPa Calm     89 % 0 in /  0.0 mm 0.0 W/m2 CLR
04:11 19 °F /  -7.2 °C 16.3 °F /  -8.7 °C 30.6 in /  1036.5 hPa Calm     89 % 0 in /  0.0 mm 0.0 W/m2 CLR
04:16 19 °F /  -7.2 °C 16.5 °F /  -8.6 °C 30.6 in /  1036.5 hPa Calm     90 % 0 in /  0.0 mm 0.0 W/m2 CLR
04:21 19 °F /  -7.2 °C 16.5 °F /  -8.6 °C 30.6 in /  1036.5 hPa Calm     90 % 0 in /  0.0 mm 0.0 W/m2 CLR
04:22 19 °F /  -7.2 °C 16.5 °F /  -8.6 °C 30.6 in /  1036.5 hPa Calm     90 % 0 in /  0.0 mm 0.0 W/m2 CLR
04:23 19 °F /  -7.2 °C 16.5 °F /  -8.6 °C 30.6 in /  1036.5 hPa Calm     90 % 0 in /  0.0 mm 0.0 W/m2 CLR
04:28 19 °F /  -7.2 °C 16.5 °F /  -8.6 °C 30.6 in /  1036.1 hPa Calm     90 % 0 in /  0.0 mm 0.0 W/m2 CLR
04:33 19 °F /  -7.2 °C 16.5 °F /  -8.6 °C 30.6 in /  1036.1 hPa West 3.5 mph /  5.6 km/h 3.5 mph /  5.6 km/h 90 % 0 in /  0.0 mm 0.0 W/m2 CLR
04:38 19 °F /  -7.2 °C 16.5 °F /  -8.6 °C 30.6 in /  1036.1 hPa West 2.3 mph /  3.7 km/h 2.3 mph /  3.7 km/h 90 % 0 in /  0.0 mm 0.0 W/m2 CLR
04:43 19 °F /  -7.2 °C 16.5 °F /  -8.6 °C 30.6 in /  1036.1 hPa Calm     90 % 0 in /  0.0 mm 0.0 W/m2 CLR
04:48 18 °F /  -7.8 °C 15.6 °F /  -9.1 °C 30.6 in /  1036.1 hPa Calm     90 % 0 in /  0.0 mm 0.0 W/m2 CLR
04:53 18 °F /  -7.8 °C 15.6 °F /  -9.1 °C 30.6 in /  1036.1 hPa Calm     90 % 0 in /  0.0 mm 0.0 W/m2 CLR
04:58 18 °F /  -7.8 °C 15.3 °F /  -9.3 °C 30.6 in /  1036.1 hPa Calm     89 % 0 in /  0.0 mm 0.0 W/m2 CLR
05:03 18 °F /  -7.8 °C 15.3 °F /  -9.3 °C 30.6 in /  1036.1 hPa Calm     89 % 0 in /  0.0 mm 0.0 W/m2 CLR
05:08 18 °F /  -7.8 °C 15.3 °F /  -9.3 °C 30.6 in /  1036.1 hPa West 1.2 mph /  1.9 km/h 1.2 mph /  1.9 km/h 89 % 0 in /  0.0 mm 0.0 W/m2 CLR
05:13 18 °F /  -7.8 °C 15.6 °F /  -9.1 °C 30.6 in /  1036.1 hPa Calm     90 % 0 in /  0.0 mm 0.0 W/m2 CLR
05:18 18 °F /  -7.8 °C 15.6 °F /  -9.1 °C 30.6 in /  1036.1 hPa Calm     90 % 0 in /  0.0 mm 0.0 W/m2 CLR
05:23 18 °F /  -7.8 °C 15.6 °F /  -9.1 °C 30.6 in /  1036.1 hPa Calm     90 % 0 in /  0.0 mm 0.0 W/m2 CLR
05:28 19 °F /  -7.2 °C 16.5 °F /  -8.6 °C 30.6 in /  1036.1 hPa Calm     90 % 0 in /  0.0 mm 0.0 W/m2 CLR
05:33 19 °F /  -7.2 °C 16.5 °F /  -8.6 °C 30.6 in /  1036.1 hPa Calm     90 % 0 in /  0.0 mm 0.0 W/m2 CLR
05:38 19 °F /  -7.2 °C 16.5 °F /  -8.6 °C 30.6 in /  1035.8 hPa West 2.3 mph /  3.7 km/h 2.3 mph /  3.7 km/h 90 % 0 in /  0.0 mm 0.0 W/m2 CLR
05:43 19 °F /  -7.2 °C 16.5 °F /  -8.6 °C 30.6 in /  1035.8 hPa Calm     90 % 0 in /  0.0 mm 0.0 W/m2 CLR
05:48 19 °F /  -7.2 °C 16.5 °F /  -8.6 °C 30.6 in /  1035.8 hPa West 2.3 mph /  3.7 km/h 2.3 mph /  3.7 km/h 90 % 0 in /  0.0 mm 0.0 W/m2 CLR
05:53 19 °F /  -7.2 °C 16.5 °F /  -8.6 °C 30.6 in /  1035.8 hPa Calm     90 % 0 in /  0.0 mm 0.0 W/m2 CLR
05:58 19 °F /  -7.2 °C 16.5 °F /  -8.6 °C 30.6 in /  1035.8 hPa Calm     90 % 0 in /  0.0 mm 0.0 W/m2 CLR
06:03 19 °F /  -7.2 °C 16.5 °F /  -8.6 °C 30.6 in /  1035.8 hPa Calm     90 % 0 in /  0.0 mm 0.0 W/m2 CLR
06:08 19 °F /  -7.2 °C 16.5 °F /  -8.6 °C 30.6 in /  1035.8 hPa WSW 3.5 mph /  5.6 km/h 3.5 mph /  5.6 km/h 90 % 0 in /  0.0 mm 0.0 W/m2 CLR
06:13 19 °F /  -7.2 °C 16.5 °F /  -8.6 °C 30.6 in /  1035.8 hPa WSW 4 mph /  6.4 km/h 4 mph /  6.4 km/h 90 % 0 in /  0.0 mm 0.0 W/m2 CLR
06:18 19 °F /  -7.2 °C 16.5 °F /  -8.6 °C 30.6 in /  1035.4 hPa West 4.6 mph /  7.4 km/h 4.6 mph /  7.4 km/h 90 % 0 in /  0.0 mm 0.0 W/m2 CLR
06:23 18 °F /  -7.8 °C 15.6 °F /  -9.1 °C 30.6 in /  1035.4 hPa Calm     90 % 0 in /  0.0 mm 0.0 W/m2 CLR
06:28 18 °F /  -7.8 °C 15.6 °F /  -9.1 °C 30.6 in /  1035.4 hPa Calm     90 % 0 in /  0.0 mm 0.0 W/m2 CLR
06:33 18 °F /  -7.8 °C 15.6 °F /  -9.1 °C 30.6 in /  1035.4 hPa Calm     90 % 0 in /  0.0 mm 0.0 W/m2 CLR
06:38 18 °F /  -7.8 °C 15.6 °F /  -9.1 °C 30.6 in /  1035.4 hPa Calm     90 % 0 in /  0.0 mm 0.0 W/m2 CLR
06:43 18 °F /  -7.8 °C 15.6 °F /  -9.1 °C 30.6 in /  1035.4 hPa West 5.8 mph /  9.3 km/h 5.8 mph /  9.3 km/h 90 % 0 in /  0.0 mm 0.0 W/m2 CLR
06:48 18 °F /  -7.8 °C 15.8 °F /  -9.0 °C 30.6 in /  1035.4 hPa West 2.3 mph /  3.7 km/h 2.3 mph /  3.7 km/h 91 % 0 in /  0.0 mm 0.0 W/m2 CLR
06:53 18 °F /  -7.8 °C 15.6 °F /  -9.1 °C 30.6 in /  1035.4 hPa Calm     90 % 0 in /  0.0 mm 0.0 W/m2 CLR
06:58 18 °F /  -7.8 °C 15.6 °F /  -9.1 °C 30.6 in /  1035.8 hPa Calm     90 % 0 in /  0.0 mm 0.0 W/m2 CLR
07:03 18 °F /  -7.8 °C 15.6 °F /  -9.1 °C 30.6 in /  1035.8 hPa Calm     90 % 0 in /  0.0 mm 0.0 W/m2 CLR
07:08 18 °F /  -7.8 °C 15.6 °F /  -9.1 °C 30.6 in /  1035.8 hPa Calm     90 % 0 in /  0.0 mm 0.0 W/m2 CLR
07:13 17.1 °F /  -8.3 °C 14.5 °F /  -9.7 °C 30.6 in /  1035.8 hPa West 2.3 mph /  3.7 km/h 2.3 mph /  3.7 km/h 90 % 0 in /  0.0 mm 0.0 W/m2 CLR
07:15 17.1 °F /  -8.3 °C 14.5 °F /  -9.7 °C 30.6 in /  1035.8 hPa West 1.2 mph /  1.9 km/h 1.2 mph /  1.9 km/h 90 % 0 in /  0.0 mm 0.0 W/m2 CLR
07:20 17.1 °F /  -8.3 °C 14.7 °F /  -9.6 °C 30.6 in /  1035.8 hPa West 2.3 mph /  3.7 km/h 2.3 mph /  3.7 km/h 91 % 0 in /  0.0 mm 0.0 W/m2 CLR
07:25 17.1 °F /  -8.3 °C 14.5 °F /  -9.7 °C 30.6 in /  1035.8 hPa Calm     90 % 0 in /  0.0 mm 0.0 W/m2 CLR
07:30 18 °F /  -7.8 °C 15.6 °F /  -9.1 °C 30.6 in /  1035.8 hPa West 6 mph /  9.7 km/h 6 mph /  9.7 km/h 90 % 0 in /  0.0 mm 0.0 W/m2 CLR
07:35 18 °F /  -7.8 °C 15.8 °F /  -9.0 °C 30.6 in /  1035.8 hPa West 3.5 mph /  5.6 km/h 3.5 mph /  5.6 km/h 91 % 0 in /  0.0 mm 0.0 W/m2 CLR
07:40 18 °F /  -7.8 °C 15.6 °F /  -9.1 °C 30.6 in /  1036.1 hPa Calm     90 % 0 in /  0.0 mm 0.0 W/m2 CLR
07:45 18 °F /  -7.8 °C 15.6 °F /  -9.1 °C 30.6 in /  1036.1 hPa Calm     90 % 0 in /  0.0 mm 0.0 W/m2 CLR
07:50 17.1 °F /  -8.3 °C 14.5 °F /  -9.7 °C 30.6 in /  1036.1 hPa Calm     90 % 0 in /  0.0 mm 0.0 W/m2 CLR
07:55 18 °F /  -7.8 °C 15.6 °F /  -9.1 °C 30.6 in /  1036.1 hPa West 5.8 mph /  9.3 km/h 5.8 mph /  9.3 km/h 90 % 0 in /  0.0 mm 0.0 W/m2 CLR
08:00 18 °F /  -7.8 °C 15.6 °F /  -9.1 °C 30.6 in /  1035.8 hPa West 3.5 mph /  5.6 km/h 3.5 mph /  5.6 km/h 90 % 0 in /  0.0 mm 5.0 W/m2 CLR
08:05 19 °F /  -7.2 °C 16.9 °F /  -8.4 °C 30.6 in /  1036.1 hPa Calm     91 % 0 in /  0.0 mm 9.0 W/m2 OVC
08:10 19 °F /  -7.2 °C 16.5 °F /  -8.6 °C 30.6 in /  1036.1 hPa Calm     90 % 0 in /  0.0 mm 12.0 W/m2 OVC
08:15 19 °F /  -7.2 °C 16.5 °F /  -8.6 °C 30.6 in /  1035.8 hPa Calm     90 % 0 in /  0.0 mm 14.0 W/m2 BKN
08:20 19 °F /  -7.2 °C 16.5 °F /  -8.6 °C 30.6 in /  1035.8 hPa Calm     90 % 0 in /  0.0 mm 14.0 W/m2 BKN
08:25 19 °F /  -7.2 °C 16.5 °F /  -8.6 °C 30.6 in /  1035.8 hPa Calm     90 % 0 in /  0.0 mm 18.0 W/m2 BKN
08:30 19 °F /  -7.2 °C 16.5 °F /  -8.6 °C 30.6 in /  1036.1 hPa West 1.2 mph /  1.9 km/h 1.2 mph /  1.9 km/h 90 % 0 in /  0.0 mm 25.0 W/m2 BKN
08:35 19 °F /  -7.2 °C 16.5 °F /  -8.6 °C 30.6 in /  1036.1 hPa Calm     90 % 0 in /  0.0 mm 37.0 W/m2 BKN
08:40 19 °F /  -7.2 °C 16.9 °F /  -8.4 °C 30.6 in /  1036.1 hPa West 3.5 mph /  5.6 km/h 3.5 mph /  5.6 km/h 91 % 0 in /  0.0 mm 49.0 W/m2 SCT
08:45 19.9 °F /  -6.7 °C 17.8 °F /  -7.9 °C 30.6 in /  1036.1 hPa Calm     91 % 0 in /  0.0 mm 63.0 W/m2 SCT
08:50 19.9 °F /  -6.7 °C 17.8 °F /  -7.9 °C 30.6 in /  1035.8 hPa Calm     91 % 0 in /  0.0 mm 76.0 W/m2 FEW
08:55 21 °F /  -6.1 °C 18.5 °F /  -7.5 °C 30.6 in /  1036.1 hPa Calm     90 % 0 in /  0.0 mm 67.0 W/m2 FEW
09:00 21 °F /  -6.1 °C 18.3 °F /  -7.6 °C 30.6 in /  1036.1 hPa Calm     89 % 0 in /  0.0 mm 70.0 W/m2 FEW
09:01 21 °F /  -6.1 °C 18.3 °F /  -7.6 °C 30.6 in /  1036.1 hPa Calm     89 % 0 in /  0.0 mm 70.0 W/m2 FEW
09:06 21.9 °F /  -5.6 °C 19.6 °F /  -6.9 °C 30.6 in /  1036.1 hPa Calm     90 % 0 in /  0.0 mm 83.0 W/m2 FEW
09:11 21.9 °F /  -5.6 °C 19.6 °F /  -6.9 °C 30.6 in /  1036.1 hPa Calm     90 % 0 in /  0.0 mm 100.0 W/m2 CLR
09:16 21.9 °F /  -5.6 °C 19.2 °F /  -7.1 °C 30.6 in /  1036.1 hPa Calm     89 % 0 in /  0.0 mm 109.0 W/m2 CLR
09:21 23 °F /  -5.0 °C 20.1 °F /  -6.6 °C 30.6 in /  1036.1 hPa Calm     89 % 0 in /  0.0 mm 109.0 W/m2 CLR
09:26 24.1 °F /  -4.4 °C 21.2 °F /  -6.0 °C 30.6 in /  1036.1 hPa Calm     89 % 0 in /  0.0 mm 104.0 W/m2 CLR
09:31 24.1 °F /  -4.4 °C 21.2 °F /  -6.0 °C 30.6 in /  1036.5 hPa Calm     89 % 0 in /  0.0 mm 121.0 W/m2 CLR
09:36 24.1 °F /  -4.4 °C 21.2 °F /  -6.0 °C 30.6 in /  1036.5 hPa Calm     89 % 0 in /  0.0 mm 132.0 W/m2 CLR
09:41 25 °F /  -3.9 °C 22.5 °F /  -5.3 °C 30.6 in /  1036.5 hPa Calm     90 % 0 in /  0.0 mm 155.0 W/m2 CLR
09:46 25 °F /  -3.9 °C 22.3 °F /  -5.4 °C 30.6 in /  1036.5 hPa Calm     89 % 0 in /  0.0 mm 165.0 W/m2 CLR
09:51 26.1 °F /  -3.3 °C 23.2 °F /  -4.9 °C 30.6 in /  1036.5 hPa Calm     89 % 0 in /  0.0 mm 139.0 W/m2 CLR
09:56 26.1 °F /  -3.3 °C 22.8 °F /  -5.1 °C 30.6 in /  1036.8 hPa Calm     88 % 0 in /  0.0 mm 139.0 W/m2 CLR
10:01 27 °F /  -2.8 °C 23.9 °F /  -4.5 °C 30.6 in /  1036.8 hPa Calm     88 % 0 in /  0.0 mm 149.0 W/m2 CLR
10:06 27 °F /  -2.8 °C 23.5 °F /  -4.7 °C 30.6 in /  1036.8 hPa Calm     87 % 0 in /  0.0 mm 144.0 W/m2 CLR
10:11 28 °F /  -2.2 °C 24.6 °F /  -4.1 °C 30.6 in /  1036.8 hPa Calm     87 % 0 in /  0.0 mm 163.0 W/m2 CLR
10:16 28 °F /  -2.2 °C 24.6 °F /  -4.1 °C 30.6 in /  1036.8 hPa Calm     87 % 0 in /  0.0 mm 174.0 W/m2 CLR
10:21 28.9 °F /  -1.7 °C 25.5 °F /  -3.6 °C 30.6 in /  1036.8 hPa Calm     87 % 0 in /  0.0 mm 192.0 W/m2 CLR
10:26 28.9 °F /  -1.7 °C 25.5 °F /  -3.6 °C 30.6 in /  1036.8 hPa Calm     87 % 0 in /  0.0 mm 223.0 W/m2 CLR
10:31 28.9 °F /  -1.7 °C 25.3 °F /  -3.7 °C 30.6 in /  1036.8 hPa Calm     86 % 0 in /  0.0 mm 192.0 W/m2 CLR
10:36 30 °F /  -1.1 °C 26.1 °F /  -3.3 °C 30.6 in /  1036.8 hPa Calm     85 % 0 in /  0.0 mm 232.0 W/m2 CLR
10:41 30.9 °F /  -0.6 °C 27 °F /  -2.8 °C 30.6 in /  1037.1 hPa Calm     85 % 0 in /  0.0 mm 253.0 W/m2 CLR
10:46 30.9 °F /  -0.6 °C 26.8 °F /  -2.9 °C 30.6 in /  1037.1 hPa Calm     84 % 0 in /  0.0 mm 162.0 W/m2 CLR
10:51 32 °F /  0.0 °C 27.7 °F /  -2.4 °C 30.6 in /  1037.1 hPa Calm     84 % 0 in /  0.0 mm 204.0 W/m2 CLR
10:56 32 °F /  0.0 °C 27.3 °F /  -2.6 °C 30.6 in /  1037.5 hPa Calm     83 % 0 in /  0.0 mm 225.0 W/m2 CLR
11:01 33.1 °F /  0.6 °C 28.4 °F /  -2.0 °C 30.6 in /  1037.1 hPa Calm     83 % 0 in /  0.0 mm 221.0 W/m2 CLR
11:06 33.1 °F /  0.6 °C 27.9 °F /  -2.3 °C 30.6 in /  1037.1 hPa Calm     81 % 0 in /  0.0 mm 327.0 W/m2 CLR
11:11 34 °F /  1.1 °C 29.1 °F /  -1.6 °C 30.6 in /  1037.1 hPa Calm     82 % 0 in /  0.0 mm 394.0 W/m2 CLR
11:16 35.1 °F /  1.7 °C 29.8 °F /  -1.2 °C 30.6 in /  1037.1 hPa Calm     81 % 0 in /  0.0 mm 410.0 W/m2 CLR
11:21 35.1 °F /  1.7 °C 29.1 °F /  -1.6 °C 30.6 in /  1037.1 hPa Calm     79 % 0 in /  0.0 mm 174.0 W/m2 CLR
11:26 36 °F /  2.2 °C 29.8 °F /  -1.2 °C 30.6 in /  1037.1 hPa Calm     78 % 0 in /  0.0 mm 169.0 W/m2 CLR
11:31 36 °F /  2.2 °C 29.5 °F /  -1.4 °C 30.6 in /  1036.8 hPa Calm     77 % 0 in /  0.0 mm 165.0 W/m2 CLR
11:36 36 °F /  2.2 °C 29.5 °F /  -1.4 °C 30.6 in /  1036.8 hPa Calm     77 % 0 in /  0.0 mm 167.0 W/m2 CLR
11:41 37 °F /  2.8 °C 30.6 °F /  -0.8 °C 30.6 in /  1036.8 hPa Calm     77 % 0 in /  0.0 mm 206.0 W/m2 CLR
11:46 37 °F /  2.8 °C 30.6 °F /  -0.8 °C 30.6 in /  1036.5 hPa Calm     77 % 0 in /  0.0 mm 283.0 W/m2 CLR
11:51 37 °F /  2.8 °C 30.6 °F /  -0.8 °C 30.6 in /  1036.5 hPa Calm     77 % 0 in /  0.0 mm 338.0 W/m2 CLR
11:56 37.9 °F /  3.3 °C 31.1 °F /  -0.5 °C 30.6 in /  1036.5 hPa Calm     76 % 0 in /  0.0 mm 271.0 W/m2 CLR
12:01 37.9 °F /  3.3 °C 30.7 °F /  -0.7 °C 30.6 in /  1036.1 hPa Calm     75 % 0 in /  0.0 mm 230.0 W/m2 CLR
12:06 37.9 °F /  3.3 °C 30.4 °F /  -0.9 °C 30.6 in /  1035.8 hPa Calm     74 % 0 in /  0.0 mm 244.0 W/m2 CLR
12:11 37.9 °F /  3.3 °C 30 °F /  -1.1 °C 30.6 in /  1035.8 hPa Calm     73 % 0 in /  0.0 mm 253.0 W/m2 CLR
12:16 39 °F /  3.9 °C 31.1 °F /  -0.5 °C 30.6 in /  1035.8 hPa Calm     73 % 0 in /  0.0 mm 404.0 W/m2 CLR
12:21 39.9 °F /  4.4 °C 31.6 °F /  -0.2 °C 30.6 in /  1035.8 hPa Calm     72 % 0 in /  0.0 mm 436.0 W/m2 CLR
12:26 41 °F /  5.0 °C 32.4 °F /  0.2 °C 30.6 in /  1035.8 hPa Calm     71 % 0 in /  0.0 mm 404.0 W/m2 CLR
12:31 41 °F /  5.0 °C 32 °F /  0.0 °C 30.6 in /  1035.8 hPa Calm     70 % 0 in /  0.0 mm 353.0 W/m2 CLR
12:36 42.1 °F /  5.6 °C 32.2 °F /  0.1 °C 30.6 in /  1035.4 hPa Calm     68 % 0 in /  0.0 mm 357.0 W/m2 CLR
12:41 42.1 °F /  5.6 °C 32.2 °F /  0.1 °C 30.6 in /  1035.4 hPa Calm     68 % 0 in /  0.0 mm 315.0 W/m2 CLR
12:46 43 °F /  6.1 °C 32.7 °F /  0.4 °C 30.6 in /  1035.4 hPa Calm     67 % 0 in /  0.0 mm 297.0 W/m2 CLR
12:51 43 °F /  6.1 °C 32.4 °F /  0.2 °C 30.6 in /  1035.4 hPa Calm     66 % 0 in /  0.0 mm 387.0 W/m2 CLR
12:56 43 °F /  6.1 °C 32.4 °F /  0.2 °C 30.6 in /  1035.4 hPa Calm   0.1 mph /  0.2 km/h 66 % 0 in /  0.0 mm 359.0 W/m2 CLR
13:01 43 °F /  6.1 °C 32 °F /  0.0 °C 30.6 in /  1035.1 hPa Calm     65 % 0 in /  0.0 mm 359.0 W/m2 CLR
13:06 44.1 °F /  6.7 °C 33.1 °F /  0.6 °C 30.6 in /  1035.1 hPa Calm     65 % 0 in /  0.0 mm 350.0 W/m2 CLR
13:11 44.1 °F /  6.7 °C 32.5 °F /  0.3 °C 30.6 in /  1035.1 hPa Calm     64 % 0 in /  0.0 mm 290.0 W/m2 CLR
13:16 44.1 °F /  6.7 °C 32.5 °F /  0.3 °C 30.6 in /  1035.1 hPa Calm     64 % 0 in /  0.0 mm 246.0 W/m2 CLR
13:21 44.1 °F /  6.7 °C 32.2 °F /  0.1 °C 30.6 in /  1034.8 hPa East 2.3 mph /  3.7 km/h 2.3 mph /  3.7 km/h 63 % 0 in /  0.0 mm 420.0 W/m2 CLR
13:26 45 °F /  7.2 °C 32.7 °F /  0.4 °C 30.6 in /  1034.8 hPa East 3.5 mph /  5.6 km/h 3.5 mph /  5.6 km/h 62 % 0 in /  0.0 mm 353.0 W/m2 CLR
13:36 44.1 °F /  6.7 °C 32.2 °F /  0.1 °C 30.6 in /  1034.8 hPa ENE 3.5 mph /  5.6 km/h 3.5 mph /  5.6 km/h 63 % 0 in /  0.0 mm 248.0 W/m2 CLR
13:41 44.1 °F /  6.7 °C 32.2 °F /  0.1 °C 30.6 in /  1034.8 hPa East 6 mph /  9.7 km/h 6 mph /  9.7 km/h 63 % 0 in /  0.0 mm 262.0 W/m2 CLR
13:46 44.1 °F /  6.7 °C 32.2 °F /  0.1 °C 30.6 in /  1034.8 hPa ENE 8.1 mph /  13.0 km/h 8.1 mph /  13.0 km/h 63 % 0 in /  0.0 mm 227.0 W/m2 CLR
13:51 43 °F /  6.1 °C 31.6 °F /  -0.2 °C 30.6 in /  1034.8 hPa ENE 5.8 mph /  9.3 km/h 5.8 mph /  9.3 km/h 64 % 0 in /  0.0 mm 239.0 W/m2 CLR
13:56 43 °F /  6.1 °C 32 °F /  0.0 °C 30.6 in /  1034.8 hPa ENE 3.5 mph /  5.6 km/h 3.5 mph /  5.6 km/h 65 % 0 in /  0.0 mm 359.0 W/m2 CLR
14:06 44.1 °F /  6.7 °C 33.1 °F /  0.6 °C 30.6 in /  1034.8 hPa East 11 mph /  17.7 km/h 11 mph /  17.7 km/h 65 % 0 in /  0.0 mm 197.0 W/m2 CLR
14:21 43 °F /  6.1 °C 32.7 °F /  0.4 °C 30.5 in /  1034.4 hPa NE 4 mph /  6.4 km/h 4 mph /  6.4 km/h 67 % 0 in /  0.0 mm 218.0 W/m2 CLR
14:26 43 °F /  6.1 °C 32.4 °F /  0.2 °C 30.5 in /  1034.4 hPa ENE 1.2 mph /  1.9 km/h 1.2 mph /  1.9 km/h 66 % 0 in /  0.0 mm 214.0 W/m2 CLR
14:31 43 °F /  6.1 °C 32.4 °F /  0.2 °C 30.5 in /  1034.4 hPa East 5.8 mph /  9.3 km/h 5.8 mph /  9.3 km/h 66 % 0 in /  0.0 mm 220.0 W/m2 CLR
14:36 43 °F /  6.1 °C 32.4 °F /  0.2 °C 30.5 in /  1034.1 hPa Calm     66 % 0 in /  0.0 mm 232.0 W/m2 CLR
14:46 44.1 °F /  6.7 °C 33.4 °F /  0.8 °C 30.5 in /  1034.1 hPa Calm     66 % 0 in /  0.0 mm 248.0 W/m2 CLR
14:56 44.1 °F /  6.7 °C 32.5 °F /  0.3 °C 30.5 in /  1033.7 hPa Calm     64 % 0 in /  0.0 mm 211.0 W/m2 CLR
15:01 45 °F /  7.2 °C 33.4 °F /  0.8 °C 30.5 in /  1033.7 hPa Calm     64 % 0 in /  0.0 mm 209.0 W/m2 CLR
15:06 45 °F /  7.2 °C 33.4 °F /  0.8 °C 30.5 in /  1033.7 hPa Calm     64 % 0 in /  0.0 mm 241.0 W/m2 CLR
15:07 45 °F /  7.2 °C 33.4 °F /  0.8 °C 30.5 in /  1033.7 hPa Calm     64 % 0 in /  0.0 mm 204.0 W/m2 CLR
15:12 45 °F /  7.2 °C 33.4 °F /  0.8 °C 30.5 in /  1033.7 hPa Calm     64 % 0 in /  0.0 mm 281.0 W/m2 CLR
15:17 45 °F /  7.2 °C 33.3 °F /  0.7 °C 30.5 in /  1033.7 hPa Calm     63 % 0 in /  0.0 mm 339.0 W/m2 CLR
15:22 46 °F /  7.8 °C 33.6 °F /  0.9 °C 30.5 in /  1033.7 hPa Calm     62 % 0 in /  0.0 mm 357.0 W/m2 CLR
15:25 46 °F /  7.8 °C 33.6 °F /  0.9 °C 30.5 in /  1033.7 hPa Calm     62 % 0 in /  0.0 mm 341.0 W/m2 CLR
15:33 46 °F /  7.8 °C 32.9 °F /  0.5 °C 30.5 in /  1033.7 hPa Calm     60 % 0 in /  0.0 mm 352.0 W/m2 CLR
15:38 46.9 °F /  8.3 °C 33.8 °F /  1.0 °C 30.5 in /  1033.4 hPa Calm     60 % 0 in /  0.0 mm 352.0 W/m2 CLR
15:43 46.9 °F /  8.3 °C 33.4 °F /  0.8 °C 30.5 in /  1033.7 hPa Calm     59 % 0 in /  0.0 mm 148.0 W/m2 CLR
15:48 46 °F /  7.8 °C 32.5 °F /  0.3 °C 30.5 in /  1033.7 hPa Calm     59 % 0 in /  0.0 mm 128.0 W/m2 CLR
15:53 46 °F /  7.8 °C 32.9 °F /  0.5 °C 30.5 in /  1033.4 hPa Calm     60 % 0 in /  0.0 mm 134.0 W/m2 CLR
15:58 46 °F /  7.8 °C 32.9 °F /  0.5 °C 30.5 in /  1033.4 hPa Calm     60 % 0 in /  0.0 mm 176.0 W/m2 CLR
16:08 46 °F /  7.8 °C 32.5 °F /  0.3 °C 30.5 in /  1033.7 hPa Calm     59 % 0 in /  0.0 mm 163.0 W/m2 CLR
16:13 46 °F /  7.8 °C 32 °F /  0.0 °C 30.5 in /  1033.7 hPa Calm     58 % 0 in /  0.0 mm 83.0 W/m2 CLR
16:18 45 °F /  7.2 °C 31.1 °F /  -0.5 °C 30.5 in /  1033.7 hPa Calm     58 % 0 in /  0.0 mm 148.0 W/m2 CLR
16:23 45 °F /  7.2 °C 31.1 °F /  -0.5 °C 30.5 in /  1033.4 hPa Calm     58 % 0 in /  0.0 mm 123.0 W/m2 CLR
16:25 45 °F /  7.2 °C 31.5 °F /  -0.3 °C 30.5 in /  1033.4 hPa Calm     59 % 0 in /  0.0 mm 114.0 W/m2 CLR
16:35 44.1 °F /  6.7 °C 30.6 °F /  -0.8 °C 30.5 in /  1033.7 hPa Calm     59 % 0 in /  0.0 mm 67.0 W/m2 FEW
16:50 43 °F /  6.1 °C 30 °F /  -1.1 °C 30.5 in /  1033.4 hPa Calm     60 % 0 in /  0.0 mm 40.0 W/m2 SCT
16:55 42.1 °F /  5.6 °C 29.5 °F /  -1.4 °C 30.5 in /  1033.4 hPa Calm     61 % 0 in /  0.0 mm 33.0 W/m2 BKN
17:00 42.1 °F /  5.6 °C 29.8 °F /  -1.2 °C 30.5 in /  1033.4 hPa Calm     62 % 0 in /  0.0 mm 23.0 W/m2 BKN
17:05 41 °F /  5.0 °C 28.9 °F /  -1.7 °C 30.5 in /  1033.1 hPa Calm     62 % 0 in /  0.0 mm 18.0 W/m2 BKN
17:10 39.9 °F /  4.4 °C 28.4 °F /  -2.0 °C 30.5 in /  1033.1 hPa Calm     63 % 0 in /  0.0 mm 16.0 W/m2 BKN
17:25 37 °F /  2.8 °C 25.9 °F /  -3.4 °C 30.5 in /  1033.4 hPa Calm     64 % 0 in /  0.0 mm 11.0 W/m2 BKN
17:30 37 °F /  2.8 °C 26.2 °F /  -3.2 °C 30.5 in /  1033.4 hPa Calm     65 % 0 in /  0.0 mm 7.0 W/m2 BKN
17:45 35.1 °F /  1.7 °C 24.8 °F /  -4.0 °C 30.5 in /  1033.4 hPa Calm     66 % 0 in /  0.0 mm 0.0 W/m2 CLR
17:50 35.1 °F /  1.7 °C 24.4 °F /  -4.2 °C 30.5 in /  1033.4 hPa Calm     65 % 0 in /  0.0 mm 0.0 W/m2 CLR
17:55 34 °F /  1.1 °C 24.3 °F /  -4.3 °C 30.5 in /  1033.4 hPa Calm     67 % 0 in /  0.0 mm 0.0 W/m2 CLR
18:00 34 °F /  1.1 °C 24.3 °F /  -4.3 °C 30.5 in /  1033.4 hPa Calm     67 % 0 in /  0.0 mm 0.0 W/m2 CLR
18:05 34 °F /  1.1 °C 25 °F /  -3.9 °C 30.5 in /  1033.7 hPa Calm     69 % 0 in /  0.0 mm 0.0 W/m2 CLR
18:15 33.1 °F /  0.6 °C 23.9 °F /  -4.5 °C 30.5 in /  1033.7 hPa Calm     69 % 0 in /  0.0 mm 0.0 W/m2 CLR
18:20 33.1 °F /  0.6 °C 23.9 °F /  -4.5 °C 30.5 in /  1033.7 hPa Calm     69 % 0 in /  0.0 mm 0.0 W/m2 CLR
18:25 32 °F /  0.0 °C 23.4 °F /  -4.8 °C 30.5 in /  1033.7 hPa Calm     70 % 0 in /  0.0 mm 0.0 W/m2 CLR
18:26 32 °F /  0.0 °C 23.4 °F /  -4.8 °C 30.5 in /  1033.7 hPa Calm     70 % 0 in /  0.0 mm 0.0 W/m2 CLR
18:31 32 °F /  0.0 °C 23.4 °F /  -4.8 °C 30.5 in /  1033.7 hPa Calm     70 % 0 in /  0.0 mm 0.0 W/m2 CLR
18:36 33.1 °F /  0.6 °C 24.6 °F /  -4.1 °C 30.5 in /  1033.7 hPa Calm     71 % 0 in /  0.0 mm 0.0 W/m2 CLR
18:41 33.1 °F /  0.6 °C 25 °F /  -3.9 °C 30.5 in /  1033.7 hPa Calm     72 % 0 in /  0.0 mm 0.0 W/m2 CLR
18:46 33.1 °F /  0.6 °C 25 °F /  -3.9 °C 30.5 in /  1033.7 hPa Calm     72 % 0 in /  0.0 mm 0.0 W/m2 CLR
18:51 33.1 °F /  0.6 °C 25.3 °F /  -3.7 °C 30.5 in /  1033.7 hPa Calm     73 % 0 in /  0.0 mm 0.0 W/m2 CLR
18:56 33.1 °F /  0.6 °C 25.5 °F /  -3.6 °C 30.5 in /  1033.7 hPa Calm     74 % 0 in /  0.0 mm 0.0 W/m2 CLR
19:01 32 °F /  0.0 °C 24.3 °F /  -4.3 °C 30.5 in /  1033.7 hPa Calm     73 % 0 in /  0.0 mm 0.0 W/m2 CLR
19:22 30 °F /  -1.1 °C 23 °F /  -5.0 °C 30.5 in /  1033.7 hPa Calm     75 % 0 in /  0.0 mm 0.0 W/m2 CLR
19:27 30 °F /  -1.1 °C 23 °F /  -5.0 °C 30.5 in /  1034.1 hPa Calm     75 % 0 in /  0.0 mm 0.0 W/m2 CLR
19:32 30.9 °F /  -0.6 °C 24.6 °F /  -4.1 °C 30.5 in /  1034.1 hPa Calm     77 % 0 in /  0.0 mm 0.0 W/m2 CLR
19:43 30 °F /  -1.1 °C 24.1 °F /  -4.4 °C 30.5 in /  1034.1 hPa Calm     78 % 0 in /  0.0 mm 0.0 W/m2 CLR
19:53 28.9 °F /  -1.7 °C 23.4 °F /  -4.8 °C 30.5 in /  1034.1 hPa Calm     79 % 0 in /  0.0 mm 0.0 W/m2 CLR
19:58 28.9 °F /  -1.7 °C 23.4 °F /  -4.8 °C 30.5 in /  1034.1 hPa Calm     79 % 0 in /  0.0 mm 0.0 W/m2 CLR
20:03 28 °F /  -2.2 °C 21.9 °F /  -5.6 °C 30.5 in /  1034.1 hPa Calm     78 % 0 in /  0.0 mm 0.0 W/m2 CLR
20:08 28 °F /  -2.2 °C 22.3 °F /  -5.4 °C 30.5 in /  1034.1 hPa Calm     79 % 0 in /  0.0 mm 0.0 W/m2 CLR
20:13 27 °F /  -2.8 °C 21.4 °F /  -5.9 °C 30.5 in /  1034.1 hPa Calm     79 % 0 in /  0.0 mm 0.0 W/m2 CLR
20:18 27 °F /  -2.8 °C 21.7 °F /  -5.7 °C 30.5 in /  1033.7 hPa Calm     80 % 0 in /  0.0 mm 0.0 W/m2 CLR
20:28 27 °F /  -2.8 °C 21.7 °F /  -5.7 °C 30.5 in /  1033.7 hPa Calm     80 % 0 in /  0.0 mm 0.0 W/m2 CLR
20:33 26.1 °F /  -3.3 °C 20.7 °F /  -6.3 °C 30.5 in /  1033.7 hPa Calm     80 % 0 in /  0.0 mm 0.0 W/m2 CLR
20:38 26.1 °F /  -3.3 °C 20.7 °F /  -6.3 °C 30.5 in /  1033.7 hPa Calm     80 % 0 in /  0.0 mm 0.0 W/m2 CLR
20:43 27 °F /  -2.8 °C 21.7 °F /  -5.7 °C 30.5 in /  1033.7 hPa Calm     80 % 0 in /  0.0 mm 0.0 W/m2 CLR
20:48 27 °F /  -2.8 °C 21.9 °F /  -5.6 °C 30.5 in /  1033.7 hPa Calm     81 % 0 in /  0.0 mm 0.0 W/m2 CLR
20:58 27 °F /  -2.8 °C 21.9 °F /  -5.6 °C 30.5 in /  1033.7 hPa Calm     81 % 0 in /  0.0 mm 0.0 W/m2 CLR
21:03 27 °F /  -2.8 °C 21.9 °F /  -5.6 °C 30.5 in /  1033.7 hPa Calm     81 % 0 in /  0.0 mm 0.0 W/m2 CLR
21:08 27 °F /  -2.8 °C 21.9 °F /  -5.6 °C 30.5 in /  1033.7 hPa Calm     81 % 0 in /  0.0 mm 0.0 W/m2 CLR
21:13 27 °F /  -2.8 °C 21.9 °F /  -5.6 °C 30.5 in /  1033.4 hPa Calm     81 % 0 in /  0.0 mm 0.0 W/m2 CLR
21:18 26.1 °F /  -3.3 °C 21 °F /  -6.1 °C 30.5 in /  1033.4 hPa Calm     81 % 0 in /  0.0 mm 0.0 W/m2 CLR
21:23 26.1 °F /  -3.3 °C 21.4 °F /  -5.9 °C 30.5 in /  1033.4 hPa Calm     82 % 0 in /  0.0 mm 0.0 W/m2 CLR
21:28 26.1 °F /  -3.3 °C 21.4 °F /  -5.9 °C 30.5 in /  1033.4 hPa Calm     82 % 0 in /  0.0 mm 0.0 W/m2 CLR
21:33 26.1 °F /  -3.3 °C 21.4 °F /  -5.9 °C 30.5 in /  1033.4 hPa Calm     82 % 0 in /  0.0 mm 0.0 W/m2 CLR
21:38 25 °F /  -3.9 °C 20.3 °F /  -6.5 °C 30.5 in /  1033.4 hPa Calm     82 % 0 in /  0.0 mm 0.0 W/m2 CLR
21:43 25 °F /  -3.9 °C 20.3 °F /  -6.5 °C 30.5 in /  1033.4 hPa Calm     82 % 0 in /  0.0 mm 0.0 W/m2 CLR
21:49 25 °F /  -3.9 °C 20.3 °F /  -6.5 °C 30.5 in /  1033.4 hPa Calm     82 % 0 in /  0.0 mm 0.0 W/m2 CLR
21:54 25 °F /  -3.9 °C 20.3 °F /  -6.5 °C 30.5 in /  1033.4 hPa Calm     82 % 0 in /  0.0 mm 0.0 W/m2 CLR
21:59 25 °F /  -3.9 °C 20.3 °F /  -6.5 °C 30.5 in /  1033.4 hPa Calm     82 % 0 in /  0.0 mm 0.0 W/m2 CLR
22:04 25 °F /  -3.9 °C 20.3 °F /  -6.5 °C 30.5 in /  1033.4 hPa Calm     82 % 0 in /  0.0 mm 0.0 W/m2 CLR
22:14 25 °F /  -3.9 °C 20.8 °F /  -6.2 °C 30.5 in /  1033.1 hPa Calm     84 % 0 in /  0.0 mm 0.0 W/m2 CLR
22:19 25 °F /  -3.9 °C 20.8 °F /  -6.2 °C 30.5 in /  1033.1 hPa Calm     84 % 0 in /  0.0 mm 0.0 W/m2 CLR
22:29 24.1 °F /  -4.4 °C 19.6 °F /  -6.9 °C 30.5 in /  1033.1 hPa Calm     83 % 0 in /  0.0 mm 0.0 W/m2 CLR
22:34 24.1 °F /  -4.4 °C 19.2 °F /  -7.1 °C 30.5 in /  1033.1 hPa Calm     82 % 0 in /  0.0 mm 0.0 W/m2 CLR
22:39 24.1 °F /  -4.4 °C 19.6 °F /  -6.9 °C 30.5 in /  1033.1 hPa Calm     83 % 0 in /  0.0 mm 0.0 W/m2 CLR
22:44 25 °F /  -3.9 °C 20.7 °F /  -6.3 °C 30.5 in /  1033.1 hPa Calm     83 % 0 in /  0.0 mm 0.0 W/m2 CLR
22:49 26.1 °F /  -3.3 °C 21.7 °F /  -5.7 °C 30.5 in /  1032.7 hPa Calm     84 % 0 in /  0.0 mm 0.0 W/m2 CLR
22:54 25 °F /  -3.9 °C 20.8 °F /  -6.2 °C 30.5 in /  1032.7 hPa Calm     84 % 0 in /  0.0 mm 0.0 W/m2 CLR
22:59 25 °F /  -3.9 °C 21 °F /  -6.1 °C 30.5 in /  1032.7 hPa Calm     85 % 0 in /  0.0 mm 0.0 W/m2 CLR
23:05 25 °F /  -3.9 °C 20.8 °F /  -6.2 °C 30.5 in /  1033.1 hPa Calm     84 % 0 in /  0.0 mm 0.0 W/m2 CLR
23:10 25 °F /  -3.9 °C 20.8 °F /  -6.2 °C 30.5 in /  1033.1 hPa Calm     84 % 0 in /  0.0 mm 0.0 W/m2 CLR
23:15 24.1 °F /  -4.4 °C 19.9 °F /  -6.7 °C 30.5 in /  1033.1 hPa Calm     84 % 0 in /  0.0 mm 0.0 W/m2 CLR
23:20 24.1 °F /  -4.4 °C 19.9 °F /  -6.7 °C 30.5 in /  1032.7 hPa Calm     84 % 0 in /  0.0 mm 0.0 W/m2 CLR
23:25 24.1 °F /  -4.4 °C 19.9 °F /  -6.7 °C 30.5 in /  1032.7 hPa Calm     84 % 0 in /  0.0 mm 0.0 W/m2 CLR
23:30 24.1 °F /  -4.4 °C 20.1 °F /  -6.6 °C 30.5 in /  1032.7 hPa Calm     85 % 0 in /  0.0 mm 0.0 W/m2 CLR
23:35 25 °F /  -3.9 °C 21 °F /  -6.1 °C 30.5 in /  1032.7 hPa Calm     85 % 0 in /  0.0 mm 0.0 W/m2 CLR
23:40 25 °F /  -3.9 °C 21 °F /  -6.1 °C 30.5 in /  1033.1 hPa Calm     85 % 0 in /  0.0 mm 0.0 W/m2 CLR
23:45 25 °F /  -3.9 °C 21.4 °F /  -5.9 °C 30.5 in /  1032.7 hPa Calm     86 % 0 in /  0.0 mm 0.0 W/m2 CLR
23:46 25 °F /  -3.9 °C 21.4 °F /  -5.9 °C 30.5 in /  1032.7 hPa Calm     86 % 0 in /  0.0 mm 0.0 W/m2 CLR
23:51 25 °F /  -3.9 °C 21.4 °F /  -5.9 °C 30.5 in /  1032.7 hPa Calm     86 % 0 in /  0.0 mm 0.0 W/m2 CLR
23:56 24.1 °F /  -4.4 °C 20.1 °F /  -6.6 °C 30.5 in /  1032.7 hPa Calm     85 % 0 in /  0.0 mm 0.0 W/m2 CLR
Lo Temps de Massalio
Compliments of Weather Underground - 1 mb